createdAt,value
2018-08-13T00:02:07.993Z,17.40
2018-08-13T00:07:12.075Z,17.40
2018-08-13T00:12:16.164Z,17.40
2018-08-13T00:27:27.885Z,17.10
2018-08-13T00:32:31.949Z,17.10
2018-08-13T00:37:36.032Z,17.00
2018-08-13T00:42:40.180Z,16.90
2018-08-13T00:52:48.070Z,16.90
2018-08-13T00:57:52.251Z,16.90
2018-08-13T01:02:56.298Z,17.00
2018-08-13T01:13:04.197Z,16.90
2018-08-13T01:28:15.919Z,16.70
2018-08-13T01:33:20.577Z,16.70
2018-08-13T01:38:24.641Z,16.70
2018-08-13T01:58:40.764Z,16.70
2018-08-13T02:03:51.749Z,16.70
2018-08-13T02:08:55.842Z,16.70
2018-08-13T02:13:59.910Z,16.70
2018-08-13T02:19:03.997Z,16.60
2018-08-13T02:24:08.085Z,16.50
2018-08-13T02:34:15.941Z,16.60
2018-08-13T02:39:20.115Z,16.60
2018-08-13T02:54:31.697Z,16.60
2018-08-13T03:04:39.586Z,16.70
2018-08-13T03:14:47.498Z,17.00
2018-08-13T03:19:51.637Z,17.10
2018-08-13T03:24:55.710Z,17.20
2018-08-13T03:35:04.902Z,17.30
2018-08-13T03:40:11.818Z,17.30
2018-08-13T03:45:15.846Z,17.50
2018-08-13T03:50:19.884Z,17.50
2018-08-13T03:55:23.974Z,17.60
2018-08-13T04:05:31.821Z,17.70
2018-08-13T04:10:36.314Z,17.70
2018-08-13T04:15:42.389Z,17.80
2018-08-13T04:20:46.426Z,17.80
2018-08-13T04:25:50.499Z,17.70
2018-08-13T04:30:54.523Z,17.60
2018-08-13T04:41:02.357Z,17.40
2018-08-13T04:51:10.221Z,17.30
2018-08-13T04:56:14.242Z,17.30
2018-08-13T05:01:18.330Z,17.40
2018-08-13T05:06:22.671Z,17.20
2018-08-13T05:16:30.554Z,16.90
2018-08-13T05:21:34.694Z,16.80
2018-08-13T05:26:38.775Z,16.80
2018-08-13T05:31:42.813Z,16.90
2018-08-13T05:46:54.453Z,17.20
2018-08-13T05:51:58.481Z,17.20
2018-08-13T05:57:02.557Z,17.20
2018-08-13T06:02:06.693Z,17.00
2018-08-13T06:07:10.745Z,16.90
2018-08-13T06:12:14.863Z,16.80
2018-08-13T06:22:22.762Z,16.40
2018-08-13T06:32:30.573Z,16.40
2018-08-13T06:37:34.630Z,16.40
2018-08-13T06:42:39.231Z,16.40
2018-08-13T06:47:43.262Z,16.50
2018-08-13T07:02:54.915Z,16.70
2018-08-13T07:07:58.957Z,16.80
2018-08-13T07:13:03.769Z,16.80
2018-08-13T07:18:08.422Z,16.80
2018-08-13T07:23:12.529Z,17.00
2018-08-13T07:28:16.562Z,17.10
2018-08-13T07:33:20.695Z,17.20
2018-08-13T07:43:28.489Z,17.30
2018-08-13T07:48:32.548Z,17.20
2018-08-13T07:53:36.609Z,17.10
2018-08-13T07:58:40.872Z,17.20
2018-08-13T08:03:44.910Z,17.20
2018-08-13T08:08:48.937Z,17.40
2018-08-13T08:13:53.020Z,17.50
2018-08-13T08:18:57.058Z,17.60
2018-08-13T08:29:06.930Z,17.70
2018-08-13T08:34:11.571Z,17.70
2018-08-13T08:39:16.222Z,17.80
2018-08-13T08:44:20.269Z,18.00
2018-08-13T08:49:24.620Z,18.10
2018-08-13T08:54:28.698Z,18.00
2018-08-13T08:59:32.729Z,18.00
2018-08-13T09:04:36.762Z,18.00
2018-08-13T09:09:40.853Z,17.90
2018-08-13T09:14:44.901Z,17.80
2018-08-13T09:30:36.690Z,18.10
2018-08-13T09:35:40.808Z,18.10
2018-08-13T09:45:48.634Z,18.30
2018-08-13T09:55:56.521Z,18.30
2018-08-13T10:01:05.901Z,18.20
2018-08-13T10:06:09.981Z,18.20
2018-08-13T10:11:14.014Z,18.20
2018-08-13T10:16:18.053Z,18.30
2018-08-13T10:26:26.782Z,18.70
2018-08-13T10:36:34.796Z,18.60
2018-08-13T10:41:39.026Z,18.50
2018-08-13T10:51:46.901Z,18.90
2018-08-13T10:56:50.938Z,18.90
2018-08-13T11:17:06.720Z,19.80
2018-08-13T11:27:15.264Z,20.60
2018-08-13T11:32:19.294Z,20.80
2018-08-13T11:37:23.325Z,20.80
2018-08-13T11:42:27.409Z,21.00
2018-08-13T11:47:31.453Z,21.30
2018-08-13T11:52:35.524Z,21.60
2018-08-13T11:57:39.538Z,22.00
2018-08-13T12:02:43.617Z,22.30
2018-08-13T12:07:47.689Z,22.70
2018-08-13T12:12:51.730Z,23.00
2018-08-13T12:17:55.777Z,23.20
2018-08-13T12:22:59.812Z,23.20
2018-08-13T12:28:04.222Z,23.30
2018-08-13T12:33:08.249Z,23.70
2018-08-13T12:38:12.305Z,23.60
2018-08-13T12:43:16.367Z,23.90
2018-08-13T12:48:20.390Z,23.90
2018-08-13T12:53:24.445Z,23.80
2018-08-13T12:58:28.474Z,23.70
2018-08-13T13:08:36.494Z,23.60
2018-08-13T13:18:44.369Z,22.00
2018-08-13T13:23:48.405Z,21.30
2018-08-13T13:28:52.438Z,21.10
2018-08-13T13:44:04.244Z,21.20
2018-08-13T13:49:08.285Z,21.30
2018-08-13T13:54:12.354Z,21.50
2018-08-13T13:59:16.382Z,21.70
2018-08-13T14:04:20.417Z,22.00
2018-08-13T14:09:24.457Z,22.30
2018-08-13T14:14:28.518Z,22.20
2018-08-13T14:19:32.550Z,22.10
2018-08-13T14:24:36.577Z,22.10
2018-08-13T14:34:44.435Z,22.40
2018-08-13T14:39:48.447Z,22.50
2018-08-13T14:55:00.241Z,22.80
2018-08-13T15:00:09.491Z,22.90
2018-08-13T15:05:13.585Z,22.90
2018-08-13T15:15:25.857Z,22.70
2018-08-13T15:20:31.080Z,22.70
2018-08-13T15:25:35.127Z,22.80
2018-08-13T15:30:39.562Z,22.70
2018-08-13T15:35:43.577Z,22.40
2018-08-13T15:45:51.450Z,22.10
2018-08-13T15:50:55.538Z,22.10
2018-08-13T15:55:59.578Z,21.90
2018-08-13T16:11:12.466Z,22.20
2018-08-13T16:16:16.517Z,22.40
2018-08-13T16:21:20.553Z,22.40
2018-08-13T16:26:24.698Z,22.30
2018-08-13T16:31:35.417Z,22.20
2018-08-13T16:41:43.286Z,22.30
2018-08-13T16:46:47.325Z,22.30
2018-08-13T17:01:59.022Z,22.40
2018-08-13T17:12:06.888Z,22.20
2018-08-13T17:27:18.638Z,22.10
2018-08-13T18:02:48.415Z,21.50
2018-08-13T18:07:53.093Z,21.40
2018-08-13T18:12:58.886Z,21.20
2018-08-13T18:18:02.921Z,21.10
2018-08-13T18:23:07.037Z,21.10
2018-08-13T18:33:14.878Z,20.90
2018-08-13T18:38:18.913Z,20.80
2018-08-13T18:48:26.802Z,20.60
2018-08-13T19:03:38.434Z,20.20
2018-08-13T19:08:42.506Z,20.10
2018-08-13T19:18:56.779Z,20.00
2018-08-13T19:24:01.686Z,19.90
2018-08-13T19:39:14.201Z,19.70
2018-08-13T19:44:18.274Z,19.60
2018-08-13T19:49:22.297Z,19.50
2018-08-13T19:54:26.394Z,19.40
2018-08-13T19:59:30.437Z,19.30
2018-08-13T20:04:34.490Z,19.20
2018-08-13T20:09:38.526Z,19.10
2018-08-13T20:14:42.699Z,19.00
2018-08-13T20:19:46.834Z,19.00
2018-08-13T20:24:50.818Z,18.80
2018-08-13T20:29:54.934Z,18.80
2018-08-13T20:45:09.841Z,18.70
2018-08-13T21:05:32.057Z,18.10
2018-08-13T21:20:43.713Z,17.90
2018-08-13T21:25:47.779Z,17.90
2018-08-13T21:30:51.821Z,17.80
2018-08-13T21:40:59.670Z,17.70
2018-08-13T21:46:03.716Z,17.70
2018-08-13T21:51:07.782Z,17.70
2018-08-13T21:56:11.930Z,17.70
2018-08-13T22:01:21.418Z,17.80
2018-08-13T22:16:33.062Z,17.70
2018-08-13T22:21:37.109Z,17.70
2018-08-13T22:26:41.210Z,17.60
2018-08-13T22:31:45.302Z,17.60
2018-08-13T22:36:49.354Z,17.60
2018-08-13T22:41:53.391Z,17.70
2018-08-13T22:46:58.550Z,17.60
2018-08-13T22:52:02.681Z,17.60
2018-08-13T22:57:06.667Z,17.60
2018-08-13T23:02:10.706Z,17.60
2018-08-13T23:07:14.760Z,17.50
2018-08-13T23:27:42.157Z,17.70
2018-08-13T23:37:51.846Z,17.90
2018-08-13T23:42:55.933Z,17.80
2018-08-13T23:47:59.990Z,17.90
2018-08-13T23:53:04.072Z,17.90
